createdAt,value
2018-07-04T00:00:25.605Z,17.15
2018-07-04T00:01:25.597Z,17.15
2018-07-04T00:02:25.585Z,17.15
2018-07-04T00:03:25.579Z,17.08
2018-07-04T00:04:25.570Z,17.12
2018-07-04T00:05:46.563Z,17.08
2018-07-04T00:06:25.545Z,17.07
2018-07-04T00:07:25.543Z,16.91
2018-07-04T00:08:25.530Z,16.97
2018-07-04T00:09:25.524Z,16.82
2018-07-04T00:10:25.520Z,16.67
2018-07-04T00:11:46.516Z,16.63
2018-07-04T00:12:25.498Z,16.63
2018-07-04T00:13:25.488Z,16.63
2018-07-04T00:14:25.476Z,16.61
2018-07-04T00:15:25.469Z,16.67
2018-07-04T00:16:25.457Z,16.70
2018-07-04T00:17:46.456Z,16.61
2018-07-04T00:18:25.439Z,16.70
2018-07-04T00:19:25.431Z,16.66
2018-07-04T00:20:25.425Z,16.67
2018-07-04T00:21:25.415Z,16.61
2018-07-04T00:22:25.403Z,16.71
2018-07-04T00:23:46.403Z,16.76
2018-07-04T00:24:25.401Z,16.76
2018-07-04T00:25:25.380Z,16.79
2018-07-04T00:26:25.371Z,16.83
2018-07-04T00:27:25.360Z,16.82
2018-07-04T00:28:25.352Z,16.78
2018-07-04T00:29:46.344Z,16.81
2018-07-04T00:30:25.334Z,16.85
2018-07-04T00:31:25.323Z,16.83
2018-07-04T00:32:25.317Z,16.83
2018-07-04T00:33:25.315Z,16.83
2018-07-04T00:34:25.308Z,16.82
2018-07-04T00:35:46.291Z,16.89
2018-07-04T00:36:25.277Z,16.75
2018-07-04T00:37:25.265Z,16.86
2018-07-04T00:38:25.258Z,16.81
2018-07-04T00:39:25.252Z,16.81
2018-07-04T00:40:25.246Z,16.83
2018-07-04T00:41:46.239Z,16.88
2018-07-04T00:42:25.222Z,16.85
2018-07-04T00:43:25.212Z,16.93
2018-07-04T00:44:25.222Z,16.89
2018-07-04T00:45:25.200Z,16.82
2018-07-04T00:46:25.186Z,16.83
2018-07-04T00:47:46.185Z,16.86
2018-07-04T00:48:25.165Z,16.96
2018-07-04T00:49:25.159Z,16.85
2018-07-04T00:50:25.147Z,16.89
2018-07-04T00:51:25.141Z,16.89
2018-07-04T00:52:25.134Z,16.93
2018-07-04T00:53:46.132Z,16.89
2018-07-04T00:54:25.115Z,16.93
2018-07-04T00:55:25.106Z,16.96
2018-07-04T00:56:25.094Z,16.96
2018-07-04T00:57:25.089Z,16.88
2018-07-04T00:58:25.080Z,16.97
2018-07-04T00:59:46.079Z,16.89
2018-07-04T01:00:25.057Z,16.96
2018-07-04T01:01:25.045Z,16.86
2018-07-04T01:02:25.043Z,16.91
2018-07-04T01:03:25.028Z,16.85
2018-07-04T01:04:25.028Z,16.94
2018-07-04T01:05:46.018Z,16.85
2018-07-04T01:06:25.010Z,16.81
2018-07-04T01:07:24.995Z,16.82
2018-07-04T01:08:24.985Z,16.86
2018-07-04T01:09:24.977Z,16.83
2018-07-04T01:10:24.970Z,16.88
2018-07-04T01:11:45.970Z,16.85
2018-07-04T01:12:24.955Z,16.85
2018-07-04T01:13:24.940Z,16.79
2018-07-04T01:14:24.938Z,16.83
2018-07-04T01:15:24.921Z,16.85
2018-07-04T01:16:24.915Z,16.79
2018-07-04T01:17:45.905Z,16.82
2018-07-04T01:18:24.901Z,16.79
2018-07-04T01:19:24.886Z,16.81
2018-07-04T01:20:24.878Z,16.73
2018-07-04T01:21:24.900Z,16.71
2018-07-04T01:22:24.858Z,16.75
2018-07-04T01:23:45.858Z,16.70
2018-07-04T01:24:24.839Z,16.75
2018-07-04T01:25:24.833Z,16.66
2018-07-04T01:26:24.821Z,16.64
2018-07-04T01:27:24.814Z,16.63
2018-07-04T01:28:24.808Z,16.68
2018-07-04T01:29:45.802Z,16.63
2018-07-04T01:30:24.781Z,16.70
2018-07-04T01:31:24.777Z,16.68
2018-07-04T01:32:24.766Z,16.66
2018-07-04T01:33:24.755Z,16.70
2018-07-04T01:34:24.750Z,16.70
2018-07-04T01:35:45.750Z,16.68
2018-07-04T01:36:24.733Z,16.63
2018-07-04T01:37:24.725Z,16.68
2018-07-04T01:38:24.713Z,16.71
2018-07-04T01:39:24.703Z,16.61
2018-07-04T01:40:24.694Z,16.64
2018-07-04T01:41:45.689Z,16.67
2018-07-04T01:42:24.677Z,16.66
2018-07-04T01:43:24.664Z,16.57
2018-07-04T01:44:24.662Z,16.57
2018-07-04T01:45:24.652Z,16.60
2018-07-04T01:46:24.634Z,16.60
2018-07-04T01:47:45.637Z,16.60
2018-07-04T01:48:24.628Z,16.57
2018-07-04T01:49:24.609Z,16.64
2018-07-04T01:50:24.601Z,16.58
2018-07-04T01:51:24.595Z,16.58
2018-07-04T01:52:24.584Z,16.58
2018-07-04T01:53:45.576Z,16.64
2018-07-04T01:54:24.567Z,16.50
2018-07-04T01:55:24.556Z,16.53
2018-07-04T01:56:24.543Z,16.53
2018-07-04T01:57:24.537Z,16.41
2018-07-04T01:58:24.527Z,16.46
2018-07-04T01:59:45.525Z,16.43
2018-07-04T02:00:24.508Z,16.52
2018-07-04T02:01:24.510Z,16.48
2018-07-04T02:02:24.490Z,16.50
2018-07-04T02:03:24.481Z,16.50
2018-07-04T02:04:24.467Z,16.46
2018-07-04T02:05:45.468Z,16.45
2018-07-04T02:06:24.454Z,16.49
2018-07-04T02:07:24.447Z,16.50
2018-07-04T02:08:24.438Z,16.53
2018-07-04T02:09:24.430Z,16.56
2018-07-04T02:10:24.415Z,16.53
2018-07-04T02:11:45.410Z,16.63
2018-07-04T02:12:24.401Z,16.46
2018-07-04T02:13:24.390Z,16.63
2018-07-04T02:14:24.379Z,16.50
2018-07-04T02:15:24.370Z,16.46
2018-07-04T02:16:24.364Z,16.52
2018-07-04T02:17:45.355Z,16.57
2018-07-04T02:18:24.343Z,16.53
2018-07-04T02:19:24.338Z,16.43
2018-07-04T02:20:24.326Z,16.49
2018-07-04T02:21:24.314Z,16.46
2018-07-04T02:22:24.304Z,16.48
2018-07-04T02:23:45.303Z,16.45
2018-07-04T02:24:24.288Z,16.49
2018-07-04T02:25:24.281Z,16.48
2018-07-04T02:26:24.271Z,16.49
2018-07-04T02:27:24.262Z,16.50
2018-07-04T02:28:24.251Z,16.58
2018-07-04T02:29:45.246Z,16.56
2018-07-04T02:30:24.237Z,16.52
2018-07-04T02:31:24.221Z,16.53
2018-07-04T02:32:24.216Z,16.49
2018-07-04T02:33:24.208Z,16.45
2018-07-04T02:34:24.195Z,16.49
2018-07-04T02:35:45.198Z,16.42
2018-07-04T02:36:24.175Z,16.39
2018-07-04T02:37:24.169Z,16.46
2018-07-04T02:38:24.158Z,16.35
2018-07-04T02:39:24.152Z,16.43
2018-07-04T02:40:24.136Z,16.41
2018-07-04T02:41:45.133Z,16.38
2018-07-04T02:42:24.127Z,16.46
2018-07-04T02:43:24.112Z,16.41
2018-07-04T02:44:24.103Z,16.45
2018-07-04T02:45:24.094Z,16.45
2018-07-04T02:46:24.084Z,16.41
2018-07-04T02:47:45.081Z,16.43
2018-07-04T02:48:24.065Z,16.46
2018-07-04T02:49:24.057Z,16.39
2018-07-04T02:50:24.044Z,16.43
2018-07-04T02:51:24.039Z,16.45
2018-07-04T02:52:24.031Z,16.41
2018-07-04T02:53:45.024Z,16.45
2018-07-04T02:54:24.007Z,16.49
2018-07-04T02:55:24.004Z,16.48
2018-07-04T02:56:23.991Z,16.41
2018-07-04T02:57:23.985Z,16.43
2018-07-04T02:58:23.978Z,16.49
2018-07-04T02:59:44.974Z,16.48
2018-07-04T03:00:23.954Z,16.53
2018-07-04T03:01:23.947Z,16.49
2018-07-04T03:02:23.938Z,16.50
2018-07-04T03:03:23.931Z,16.49
2018-07-04T03:04:23.922Z,16.49
2018-07-04T03:05:44.919Z,16.48
2018-07-04T03:06:23.899Z,16.46
2018-07-04T03:07:23.886Z,16.50
2018-07-04T03:08:23.881Z,16.48
2018-07-04T03:09:23.868Z,16.48
2018-07-04T03:10:23.860Z,16.48
2018-07-04T03:11:44.857Z,16.49
2018-07-04T03:12:23.844Z,16.46
2018-07-04T03:13:23.829Z,16.49
2018-07-04T03:14:23.823Z,16.45
2018-07-04T03:15:23.816Z,16.50
2018-07-04T03:16:23.804Z,16.45
2018-07-04T03:17:44.803Z,16.49
2018-07-04T03:18:23.791Z,16.45
2018-07-04T03:19:23.780Z,16.48
2018-07-04T03:20:23.769Z,16.46
2018-07-04T03:21:23.761Z,16.49
2018-07-04T03:22:23.752Z,16.48
2018-07-04T03:23:44.743Z,16.46
2018-07-04T03:24:23.729Z,16.46
2018-07-04T03:25:23.727Z,16.39
2018-07-04T03:26:23.716Z,16.38
2018-07-04T03:27:23.704Z,16.48
2018-07-04T03:28:23.697Z,16.42
2018-07-04T03:29:44.689Z,16.34
2018-07-04T03:30:23.675Z,16.34
2018-07-04T03:31:23.667Z,16.38
2018-07-04T03:32:23.658Z,16.39
2018-07-04T03:33:23.650Z,16.34
2018-07-04T03:34:23.635Z,16.33
2018-07-04T03:35:44.635Z,16.28
2018-07-04T03:36:23.618Z,16.31
2018-07-04T03:37:23.613Z,16.33
2018-07-04T03:38:23.607Z,16.30
2018-07-04T03:39:23.590Z,16.31
2018-07-04T03:40:23.584Z,16.30
2018-07-04T03:41:44.580Z,16.30
2018-07-04T03:42:23.560Z,16.30
2018-07-04T03:43:23.557Z,16.25
2018-07-04T03:44:23.543Z,16.25
2018-07-04T03:45:23.537Z,16.24
2018-07-04T03:46:23.529Z,16.21
2018-07-04T03:47:44.529Z,16.24
2018-07-04T03:48:23.507Z,16.27
2018-07-04T03:49:23.505Z,16.24
2018-07-04T03:50:23.489Z,16.28
2018-07-04T03:51:23.482Z,16.21
2018-07-04T03:52:23.470Z,16.21
2018-07-04T03:53:44.462Z,16.15
2018-07-04T03:54:23.450Z,16.24
2018-07-04T03:55:23.441Z,16.20
2018-07-04T03:56:23.438Z,16.23
2018-07-04T03:57:23.420Z,16.20
2018-07-04T03:58:23.414Z,16.23
2018-07-04T03:59:44.413Z,16.21
2018-07-04T04:00:23.393Z,16.24
2018-07-04T04:01:23.384Z,16.27
2018-07-04T04:02:23.375Z,16.23
2018-07-04T04:03:23.366Z,16.23
2018-07-04T04:04:23.353Z,16.28
2018-07-04T04:05:44.356Z,16.24
2018-07-04T04:06:23.341Z,16.23
2018-07-04T04:07:23.372Z,16.31
2018-07-04T04:08:23.322Z,16.27
2018-07-04T04:09:23.310Z,16.31
2018-07-04T04:10:23.298Z,16.28
2018-07-04T04:11:44.297Z,16.39
2018-07-04T04:12:23.288Z,16.39
2018-07-04T04:13:23.276Z,16.38
2018-07-04T04:14:23.260Z,16.38
2018-07-04T04:15:23.249Z,16.38
2018-07-04T04:16:23.245Z,16.35
2018-07-04T04:17:44.240Z,16.42
2018-07-04T04:18:23.223Z,16.35
2018-07-04T04:19:23.213Z,16.31
2018-07-04T04:20:23.205Z,16.31
2018-07-04T04:21:23.195Z,16.39
2018-07-04T04:22:23.187Z,16.43
2018-07-04T04:23:44.184Z,16.39
2018-07-04T04:24:23.171Z,16.38
2018-07-04T04:25:23.166Z,16.39
2018-07-04T04:26:23.156Z,16.38
2018-07-04T04:27:23.140Z,16.39
2018-07-04T04:28:23.133Z,16.50
2018-07-04T04:29:44.126Z,16.43
2018-07-04T04:30:23.115Z,16.45
2018-07-04T04:31:23.107Z,16.49
2018-07-04T04:32:23.093Z,16.48
2018-07-04T04:33:23.086Z,16.52
2018-07-04T04:34:23.075Z,16.57
2018-07-04T04:35:44.071Z,16.53
2018-07-04T04:36:23.097Z,16.52
2018-07-04T04:37:23.050Z,16.57
2018-07-04T04:38:23.033Z,16.56
2018-07-04T04:39:23.026Z,16.49
2018-07-04T04:40:23.018Z,16.50
2018-07-04T04:41:44.016Z,16.56
2018-07-04T04:42:23.055Z,16.53
2018-07-04T04:43:22.988Z,16.50
2018-07-04T04:44:22.980Z,16.53
2018-07-04T04:45:22.972Z,16.53
2018-07-04T04:46:22.964Z,16.56
2018-07-04T04:47:43.958Z,16.48
2018-07-04T04:48:22.944Z,16.56
2018-07-04T04:49:22.931Z,16.43
2018-07-04T04:50:22.922Z,16.48
2018-07-04T04:51:22.915Z,16.57
2018-07-04T04:52:22.905Z,16.58
2018-07-04T04:53:43.895Z,16.57
2018-07-04T04:54:22.883Z,16.50
2018-07-04T04:55:22.874Z,16.58
2018-07-04T04:56:22.874Z,16.50
2018-07-04T04:57:22.862Z,16.46
2018-07-04T04:58:22.850Z,16.56
2018-07-04T04:59:43.845Z,16.49
2018-07-04T05:00:22.830Z,16.49
2018-07-04T05:01:22.827Z,16.50
2018-07-04T05:02:22.829Z,16.49
2018-07-04T05:03:22.813Z,16.42
2018-07-04T05:04:22.790Z,16.41
2018-07-04T05:05:43.792Z,16.46
2018-07-04T05:06:22.776Z,16.48
2018-07-04T05:07:22.764Z,16.45
2018-07-04T05:08:22.758Z,16.41
2018-07-04T05:09:22.743Z,16.39
2018-07-04T05:10:22.740Z,16.35
2018-07-04T05:11:43.735Z,16.35
2018-07-04T05:12:22.717Z,16.38
2018-07-04T05:13:22.707Z,16.38
2018-07-04T05:14:22.699Z,16.46
2018-07-04T05:15:22.691Z,16.45
2018-07-04T05:16:22.683Z,16.41
2018-07-04T05:17:43.675Z,16.39
2018-07-04T05:18:22.661Z,16.43
2018-07-04T05:19:22.656Z,16.34
2018-07-04T05:20:22.644Z,16.41
2018-07-04T05:21:22.632Z,16.42
2018-07-04T05:22:22.625Z,16.46
2018-07-04T05:23:43.622Z,16.48
2018-07-04T05:24:22.605Z,16.43
2018-07-04T05:25:22.605Z,16.50
2018-07-04T05:26:22.589Z,16.41
2018-07-04T05:27:22.578Z,16.49
2018-07-04T05:28:22.639Z,16.50
2018-07-04T05:29:43.564Z,16.56
2018-07-04T05:30:22.549Z,16.45
2018-07-04T05:31:22.545Z,16.49
2018-07-04T05:32:22.534Z,16.52
2018-07-04T05:33:22.524Z,16.50
2018-07-04T05:34:22.510Z,16.49
2018-07-04T05:35:43.509Z,16.49
2018-07-04T05:36:22.502Z,16.53
2018-07-04T05:37:22.490Z,16.45
2018-07-04T05:38:22.473Z,16.52
2018-07-04T05:39:22.467Z,16.49
2018-07-04T05:40:22.459Z,16.46
2018-07-04T05:41:43.452Z,16.50
2018-07-04T05:42:22.434Z,16.60
2018-07-04T05:43:22.429Z,16.60
2018-07-04T05:44:22.425Z,16.60
2018-07-04T05:45:22.412Z,16.63
2018-07-04T05:46:22.402Z,16.58
2018-07-04T05:47:43.824Z,16.58
2018-07-04T05:48:22.382Z,16.58
2018-07-04T05:49:22.372Z,16.63
2018-07-04T05:50:22.362Z,16.60
2018-07-04T05:51:22.362Z,16.66
2018-07-04T05:52:22.347Z,16.63
2018-07-04T05:53:43.337Z,16.63
2018-07-04T05:54:22.331Z,16.64
2018-07-04T05:55:22.320Z,16.71
2018-07-04T05:56:22.312Z,16.71
2018-07-04T05:57:22.297Z,16.60
2018-07-04T05:58:22.287Z,16.67
2018-07-04T05:59:43.284Z,16.81
2018-07-04T06:00:22.271Z,16.71
2018-07-04T06:01:22.260Z,16.82
2018-07-04T06:02:22.251Z,16.86
2018-07-04T06:03:22.238Z,16.88
2018-07-04T06:04:22.233Z,16.91
2018-07-04T06:05:43.226Z,16.96
2018-07-04T06:06:22.214Z,17.18
2018-07-04T06:07:22.206Z,17.26
2018-07-04T06:08:22.195Z,17.36
2018-07-04T06:09:22.189Z,17.51
2018-07-04T06:10:22.179Z,17.49
2018-07-04T06:11:43.174Z,17.55
2018-07-04T06:12:22.161Z,17.52
2018-07-04T06:13:22.150Z,17.56
2018-07-04T06:14:22.142Z,17.71
2018-07-04T06:15:22.129Z,17.66
2018-07-04T06:16:22.181Z,17.71
2018-07-04T06:17:43.201Z,17.75
2018-07-04T06:18:22.109Z,17.75
2018-07-04T06:19:22.091Z,17.74
2018-07-04T06:20:22.084Z,17.77
2018-07-04T06:21:22.076Z,17.79
2018-07-04T06:22:22.067Z,17.75
2018-07-04T06:23:43.063Z,17.81
2018-07-04T06:24:22.054Z,17.74
2018-07-04T06:25:22.042Z,17.81
2018-07-04T06:26:22.031Z,17.86
2018-07-04T06:27:22.027Z,17.79
2018-07-04T06:28:22.017Z,17.87
2018-07-04T06:29:43.006Z,17.93
2018-07-04T06:30:21.995Z,17.87
2018-07-04T06:31:21.987Z,17.89
2018-07-04T06:32:21.985Z,17.90
2018-07-04T06:33:21.972Z,17.96
2018-07-04T06:34:21.964Z,17.97
2018-07-04T06:35:42.962Z,17.99
2018-07-04T06:36:21.943Z,18.00
2018-07-04T06:37:21.936Z,18.08
2018-07-04T06:38:21.924Z,18.10
2018-07-04T06:39:21.919Z,18.18
2018-07-04T06:40:21.904Z,18.23
2018-07-04T06:41:42.907Z,18.36
2018-07-04T06:42:21.890Z,18.41
2018-07-04T06:43:21.886Z,18.54
2018-07-04T06:44:21.876Z,18.58
2018-07-04T06:45:21.867Z,18.78
2018-07-04T06:46:21.857Z,18.73
2018-07-04T06:47:42.857Z,18.78
2018-07-04T06:48:21.842Z,18.76
2018-07-04T06:49:21.826Z,18.73
2018-07-04T06:50:21.824Z,18.80
2018-07-04T06:51:21.811Z,18.82
2018-07-04T06:52:21.806Z,18.85
2018-07-04T06:53:42.802Z,18.84
2018-07-04T06:54:21.792Z,18.94
2018-07-04T06:55:21.783Z,18.91
2018-07-04T06:56:21.776Z,18.82
2018-07-04T06:57:21.765Z,18.82
2018-07-04T06:58:21.754Z,18.81
2018-07-04T06:59:42.752Z,18.82
2018-07-04T07:00:21.741Z,18.75
2018-07-04T07:01:21.739Z,18.72
2018-07-04T07:02:21.723Z,18.81
2018-07-04T07:03:21.714Z,18.78
2018-07-04T07:04:21.704Z,18.70
2018-07-04T07:05:42.699Z,18.75
2018-07-04T07:06:21.685Z,18.67
2018-07-04T07:07:21.683Z,18.58
2018-07-04T07:08:21.685Z,18.73
2018-07-04T07:09:21.665Z,18.76
2018-07-04T07:10:21.656Z,18.72
2018-07-04T07:11:42.644Z,18.67
2018-07-04T07:12:21.636Z,18.60
2018-07-04T07:13:21.626Z,18.63
2018-07-04T07:14:21.626Z,18.67
2018-07-04T07:15:21.616Z,18.72
2018-07-04T07:16:21.604Z,18.69
2018-07-04T07:17:42.607Z,18.67
2018-07-04T07:18:21.594Z,18.73
2018-07-04T07:19:21.581Z,18.75
2018-07-04T07:20:21.568Z,18.76
2018-07-04T07:21:21.561Z,18.80
2018-07-04T07:22:21.555Z,18.82
2018-07-04T07:23:42.554Z,18.82
2018-07-04T07:24:21.548Z,18.81
2018-07-04T07:25:21.526Z,18.84
2018-07-04T07:26:21.525Z,18.85
2018-07-04T07:27:21.518Z,18.81
2018-07-04T07:28:21.508Z,18.94
2018-07-04T07:29:42.498Z,18.92
2018-07-04T07:30:21.488Z,18.91
2018-07-04T07:31:21.481Z,18.92
2018-07-04T07:32:21.470Z,18.92
2018-07-04T07:33:21.460Z,18.92
2018-07-04T07:34:21.485Z,18.99
2018-07-04T07:35:42.455Z,18.98
2018-07-04T07:36:21.439Z,18.88
2018-07-04T07:37:21.429Z,18.92
2018-07-04T07:38:21.423Z,18.98
2018-07-04T07:39:21.412Z,18.94
2018-07-04T07:40:21.400Z,18.94
2018-07-04T07:41:42.402Z,18.94
2018-07-04T07:42:21.393Z,18.98
2018-07-04T07:43:21.383Z,18.92
2018-07-04T07:44:21.366Z,18.94
2018-07-04T07:45:21.367Z,18.99
2018-07-04T07:46:21.361Z,18.99
2018-07-04T07:47:42.359Z,18.92
2018-07-04T07:48:21.339Z,18.94
2018-07-04T07:49:21.335Z,18.98
2018-07-04T07:50:21.324Z,18.94
2018-07-04T07:51:21.314Z,19.00
2018-07-04T07:52:21.306Z,18.92
2018-07-04T07:53:42.306Z,19.02
2018-07-04T07:54:21.316Z,18.99
2018-07-04T07:55:21.289Z,18.91
2018-07-04T07:56:21.277Z,19.00
2018-07-04T07:57:21.269Z,18.98
2018-07-04T07:58:21.261Z,18.99
2018-07-04T07:59:42.260Z,19.08
2018-07-04T08:00:21.248Z,19.14
2018-07-04T08:01:21.230Z,19.13
2018-07-04T08:02:21.229Z,19.23
2018-07-04T08:03:21.221Z,19.14
2018-07-04T08:04:21.211Z,19.19
2018-07-04T08:05:42.205Z,19.18
2018-07-04T08:06:21.190Z,19.23
2018-07-04T08:07:21.184Z,19.26
2018-07-04T08:08:21.181Z,19.25
2018-07-04T08:09:21.174Z,19.29
2018-07-04T08:10:21.155Z,19.29
2018-07-04T08:11:42.161Z,19.25
2018-07-04T08:12:21.148Z,19.37
2018-07-04T08:13:21.138Z,19.36
2018-07-04T08:14:21.128Z,19.48
2018-07-04T08:15:21.121Z,19.63
2018-07-04T08:16:21.112Z,19.84
2018-07-04T08:17:42.109Z,20.05
2018-07-04T08:18:21.094Z,20.33
2018-07-04T08:19:21.089Z,20.42
2018-07-04T08:20:21.078Z,20.58
2018-07-04T08:21:21.070Z,20.72
2018-07-04T08:22:21.065Z,20.82
2018-07-04T08:23:42.062Z,20.89
2018-07-04T08:24:21.048Z,21.04
2018-07-04T08:25:21.040Z,21.13
2018-07-04T08:26:21.046Z,21.27
2018-07-04T08:27:21.030Z,21.38
2018-07-04T08:28:21.022Z,21.53
2018-07-04T08:29:42.021Z,21.68
2018-07-04T08:30:21.029Z,21.72
2018-07-04T08:31:20.999Z,21.82
2018-07-04T08:32:20.992Z,21.90
2018-07-04T08:33:20.982Z,21.86
2018-07-04T08:34:20.977Z,22.09
2018-07-04T08:35:41.984Z,22.15
2018-07-04T08:36:20.962Z,22.21
2018-07-04T08:37:20.952Z,22.35
2018-07-04T08:38:20.948Z,22.37
2018-07-04T08:39:20.946Z,22.47
2018-07-04T08:40:20.934Z,22.51
2018-07-04T08:41:41.928Z,22.57
2018-07-04T08:42:20.920Z,22.60
2018-07-04T08:43:20.910Z,22.64
2018-07-04T08:44:20.901Z,22.75
2018-07-04T08:45:20.896Z,22.82
2018-07-04T08:46:20.897Z,22.88
2018-07-04T08:47:41.897Z,22.91
2018-07-04T08:48:20.879Z,22.91
2018-07-04T08:49:20.869Z,23.00
2018-07-04T08:50:20.859Z,23.00
2018-07-04T08:51:20.857Z,22.85
2018-07-04T08:52:20.853Z,22.79
2018-07-04T08:53:41.853Z,22.70
2018-07-04T08:54:20.842Z,22.83
2018-07-04T08:55:20.832Z,22.98
2018-07-04T08:56:20.826Z,23.01
2018-07-04T08:57:20.820Z,23.15
2018-07-04T08:58:20.843Z,23.17
2018-07-04T08:59:41.810Z,23.19
2018-07-04T09:00:20.804Z,23.32
2018-07-04T09:01:20.792Z,23.35
2018-07-04T09:02:20.790Z,23.47
2018-07-04T09:03:20.783Z,23.51
2018-07-04T09:04:20.773Z,23.47
2018-07-04T09:05:41.875Z,23.57
2018-07-04T09:06:20.762Z,23.65
2018-07-04T09:07:20.753Z,23.55
2018-07-04T09:08:20.750Z,23.70
2018-07-04T09:09:20.743Z,23.83
2018-07-04T09:10:20.737Z,23.84
2018-07-04T09:11:41.770Z,23.80
2018-07-04T09:12:20.724Z,23.88
2018-07-04T09:13:20.720Z,23.98
2018-07-04T09:14:20.715Z,23.97
2018-07-04T09:15:20.711Z,23.85
2018-07-04T09:16:20.704Z,23.93
2018-07-04T09:17:41.699Z,23.91
2018-07-04T09:18:20.689Z,23.97
2018-07-04T09:19:20.687Z,23.98
2018-07-04T09:20:20.680Z,23.87
2018-07-04T09:21:20.672Z,23.87
2018-07-04T09:22:20.665Z,23.90
2018-07-04T09:23:41.662Z,23.95
2018-07-04T09:24:20.652Z,23.88
2018-07-04T09:25:20.647Z,23.95
2018-07-04T09:26:20.640Z,24.03
2018-07-04T09:27:20.635Z,23.94
2018-07-04T09:28:20.629Z,24.06
2018-07-04T09:29:41.629Z,24.12
2018-07-04T09:30:20.621Z,24.09
2018-07-04T09:31:20.613Z,24.02
2018-07-04T09:32:20.605Z,23.97
2018-07-04T09:33:20.601Z,24.03
2018-07-04T09:34:20.595Z,24.02
2018-07-04T09:35:41.594Z,23.95
2018-07-04T09:36:20.590Z,24.08
2018-07-04T09:37:20.574Z,24.13
2018-07-04T09:38:20.600Z,24.21
2018-07-04T09:39:20.566Z,24.30
2018-07-04T09:40:20.560Z,24.22
2018-07-04T09:41:41.559Z,24.31
2018-07-04T09:42:20.554Z,24.22
2018-07-04T09:43:20.540Z,24.37
2018-07-04T09:44:20.545Z,24.28
2018-07-04T09:45:20.531Z,24.39
2018-07-04T09:46:20.526Z,24.39
2018-07-04T09:47:41.579Z,24.37
2018-07-04T09:48:20.522Z,24.43
2018-07-04T09:49:20.511Z,24.47
2018-07-04T09:50:20.508Z,24.47
2018-07-04T09:51:20.502Z,24.39
2018-07-04T09:52:20.495Z,24.40
2018-07-04T09:53:41.499Z,24.47
2018-07-04T09:54:20.483Z,24.45
2018-07-04T09:55:20.477Z,24.52
2018-07-04T09:56:20.469Z,24.53
2018-07-04T09:57:20.465Z,24.49
2018-07-04T09:58:20.467Z,24.47
2018-07-04T09:59:41.462Z,24.49
2018-07-04T10:00:20.448Z,24.52
2018-07-04T10:01:20.440Z,24.57
2018-07-04T10:02:20.440Z,24.64
2018-07-04T10:03:20.434Z,24.57
2018-07-04T10:04:20.428Z,24.62
2018-07-04T10:05:41.477Z,24.65
2018-07-04T10:06:20.418Z,24.65
2018-07-04T10:07:20.411Z,24.68
2018-07-04T10:08:20.404Z,24.65
2018-07-04T10:09:20.399Z,24.60
2018-07-04T10:10:20.395Z,24.67
2018-07-04T10:11:41.406Z,24.69
2018-07-04T10:12:20.385Z,24.68
2018-07-04T10:13:20.377Z,24.85
2018-07-04T10:14:20.375Z,24.81
2018-07-04T10:15:20.371Z,24.83
2018-07-04T10:16:20.360Z,24.87
2018-07-04T10:17:41.364Z,24.73
2018-07-04T10:18:20.385Z,24.69
2018-07-04T10:19:20.353Z,24.76
2018-07-04T10:20:20.339Z,24.76
2018-07-04T10:21:20.337Z,24.64
2018-07-04T10:22:20.327Z,24.53
2018-07-04T10:23:41.332Z,24.53
2018-07-04T10:24:20.321Z,24.45
2018-07-04T10:25:20.314Z,24.30
2018-07-04T10:26:20.312Z,24.13
2018-07-04T10:27:20.302Z,24.10
2018-07-04T10:28:20.302Z,23.85
2018-07-04T10:29:41.300Z,23.93
2018-07-04T10:30:20.286Z,23.85
2018-07-04T10:31:20.287Z,23.66
2018-07-04T10:32:20.279Z,23.57
2018-07-04T10:33:20.275Z,23.40
2018-07-04T10:34:20.317Z,23.23
2018-07-04T10:35:41.271Z,23.17
2018-07-04T10:36:20.255Z,23.17
2018-07-04T10:37:20.253Z,23.09
2018-07-04T10:38:20.243Z,22.95
2018-07-04T10:39:20.242Z,22.85
2018-07-04T10:40:20.239Z,22.73
2018-07-04T10:41:41.231Z,22.70
2018-07-04T10:42:20.221Z,22.55
2018-07-04T10:43:20.215Z,22.45
2018-07-04T10:44:20.207Z,22.24
2018-07-04T10:45:20.201Z,22.10
2018-07-04T10:46:20.195Z,22.12
2018-07-04T10:47:41.195Z,21.99
2018-07-04T10:48:20.188Z,21.98
2018-07-04T10:49:20.179Z,21.86
2018-07-04T10:50:20.171Z,21.68
2018-07-04T10:51:20.170Z,21.64
2018-07-04T10:52:20.161Z,21.53
2018-07-04T10:53:41.161Z,21.49
2018-07-04T10:54:20.149Z,21.44
2018-07-04T10:55:20.138Z,21.32
2018-07-04T10:56:20.133Z,21.37
2018-07-04T10:57:20.122Z,21.24
2018-07-04T10:58:20.118Z,21.31
2018-07-04T10:59:41.123Z,21.27
2018-07-04T11:00:20.107Z,21.32
2018-07-04T11:01:20.099Z,21.28
2018-07-04T11:02:20.091Z,21.25
2018-07-04T11:03:20.088Z,21.19
2018-07-04T11:04:20.079Z,21.17
2018-07-04T11:05:41.079Z,21.17
2018-07-04T11:06:20.071Z,21.16
2018-07-04T11:07:20.065Z,21.16
2018-07-04T11:08:20.054Z,21.17
2018-07-04T11:09:20.048Z,21.21
2018-07-04T11:10:20.041Z,21.17
2018-07-04T11:11:41.039Z,21.12
2018-07-04T11:12:20.025Z,21.17
2018-07-04T11:13:20.017Z,21.22
2018-07-04T11:14:20.010Z,21.16
2018-07-04T11:15:20.002Z,21.16
2018-07-04T11:16:19.995Z,21.16
2018-07-04T11:17:40.994Z,21.19
2018-07-04T11:18:19.982Z,21.12
2018-07-04T11:19:19.975Z,21.13
2018-07-04T11:20:19.971Z,21.13
2018-07-04T11:21:19.964Z,21.07
2018-07-04T11:22:19.979Z,20.94
2018-07-04T11:23:40.950Z,21.06
2018-07-04T11:24:19.944Z,21.06
2018-07-04T11:25:19.932Z,21.10
2018-07-04T11:26:19.928Z,21.10
2018-07-04T11:27:19.919Z,21.17
2018-07-04T11:28:19.918Z,21.13
2018-07-04T11:29:40.910Z,21.28
2018-07-04T11:30:19.900Z,21.27
2018-07-04T11:31:19.897Z,21.32
2018-07-04T11:32:19.887Z,21.50
2018-07-04T11:33:19.879Z,21.75
2018-07-04T11:34:19.867Z,21.90
2018-07-04T11:35:40.884Z,21.90
2018-07-04T11:36:19.852Z,22.10
2018-07-04T11:37:19.848Z,22.30
2018-07-04T11:38:19.856Z,22.33
2018-07-04T11:39:19.836Z,22.36
2018-07-04T11:40:19.836Z,22.49
2018-07-04T11:41:40.824Z,22.62
2018-07-04T11:42:19.813Z,22.68
2018-07-04T11:43:19.811Z,22.70
2018-07-04T11:44:19.797Z,22.72
2018-07-04T11:45:19.794Z,22.68
2018-07-04T11:46:19.787Z,22.72
2018-07-04T11:47:40.785Z,22.58
2018-07-04T11:48:19.773Z,22.72
2018-07-04T11:49:19.767Z,22.68
2018-07-04T11:50:19.759Z,22.70
2018-07-04T11:51:19.766Z,22.82
2018-07-04T11:52:19.748Z,23.15
2018-07-04T11:53:40.745Z,23.33
2018-07-04T11:54:19.738Z,23.36
2018-07-04T11:55:19.730Z,23.63
2018-07-04T11:56:19.723Z,23.79
2018-07-04T11:57:19.713Z,23.85
2018-07-04T11:58:19.723Z,23.83
2018-07-04T11:59:40.708Z,23.85
2018-07-04T12:00:19.696Z,23.70
2018-07-04T12:01:19.688Z,23.63
2018-07-04T12:02:19.684Z,23.65
2018-07-04T12:03:19.676Z,23.66
2018-07-04T12:04:19.670Z,23.78
2018-07-04T12:05:40.669Z,23.87
2018-07-04T12:06:19.658Z,23.88
2018-07-04T12:07:19.654Z,24.00
2018-07-04T12:08:19.651Z,23.90
2018-07-04T12:09:19.643Z,23.85
2018-07-04T12:10:19.639Z,23.95
2018-07-04T12:11:40.642Z,23.94
2018-07-04T12:12:19.628Z,23.95
2018-07-04T12:13:19.615Z,23.90
2018-07-04T12:14:19.609Z,23.90
2018-07-04T12:15:19.608Z,23.95
2018-07-04T12:16:19.599Z,24.12
2018-07-04T12:17:40.598Z,24.20
2018-07-04T12:18:19.586Z,24.28
2018-07-04T12:19:19.578Z,24.28
2018-07-04T12:20:19.578Z,24.30
2018-07-04T12:21:19.571Z,24.42
2018-07-04T12:22:19.562Z,24.57
2018-07-04T12:23:40.567Z,24.62
2018-07-04T12:24:19.561Z,24.80
2018-07-04T12:25:19.549Z,24.67
2018-07-04T12:26:19.539Z,24.67
2018-07-04T12:27:19.536Z,24.69
2018-07-04T12:28:19.538Z,24.81
2018-07-04T12:29:40.538Z,24.95
2018-07-04T12:30:19.526Z,25.05
2018-07-04T12:31:19.515Z,25.10
2018-07-04T12:32:19.515Z,25.06
2018-07-04T12:33:19.513Z,25.17
2018-07-04T12:34:19.495Z,25.14
2018-07-04T12:35:40.503Z,25.23
2018-07-04T12:36:19.493Z,25.28
2018-07-04T12:37:19.525Z,25.33
2018-07-04T12:38:19.481Z,25.32
2018-07-04T12:39:19.472Z,25.25
2018-07-04T12:40:19.476Z,25.28
2018-07-04T12:41:40.473Z,25.33
2018-07-04T12:42:19.461Z,25.30
2018-07-04T12:43:19.463Z,25.30
2018-07-04T12:44:19.453Z,25.33
2018-07-04T12:45:19.442Z,25.33
2018-07-04T12:46:19.442Z,25.32
2018-07-04T12:47:40.441Z,25.35
2018-07-04T12:48:19.433Z,25.36
2018-07-04T12:49:19.425Z,25.32
2018-07-04T12:50:19.423Z,25.25
2018-07-04T12:51:19.413Z,25.15
2018-07-04T12:52:19.409Z,25.18